Connor Township, Maine
Current Conditions -  °F | °C
As of 11:54 AM on Thursday 23 Oct 2014 (Local Time) from KCAR Reporting Station
Overcast Overcast  
Wind Chill: 43°   Ceiling: 8500
Heat Index: 48°   Visibility: 10mi
Dew Point: 38°   Wind: 12mph
Humidity: 68%   Direction: 30°NNE
Pressure: 30.13"   Gusts: 22mph
Location:  46.8928°N, 68.1493°W
Report Text: KCAR 231554Z AUTO 03010G19KT 10SM OVC085 09/03 A3013 RMK AO2 SLP209 T00890033
Loading
Personal Weather Stations






























Interactive Weather Map
Tropical Storm Tracking
New forecast layout! Learn more

10-Day Weather Forecast

Advertisements
Track Severe Weather on mobile